sensor_id;sensor_type;location;lat;lon;timestamp;temperature;humidity
22491;DHT22;11412;50.802;4.350;2022-07-29T00:00:38;20.10;99.90
22491;DHT22;11412;50.802;4.350;2022-07-29T00:03:04;20.20;99.90
22491;DHT22;11412;50.802;4.350;2022-07-29T00:05:29;20.30;99.90
22491;DHT22;11412;50.802;4.350;2022-07-29T00:07:55;20.10;99.90
22491;DHT22;11412;50.802;4.350;2022-07-29T00:10:21;20.00;99.90
22491;DHT22;11412;50.802;4.350;2022-07-29T00:12:47;19.90;99.90
22491;DHT22;11412;50.802;4.350;2022-07-29T00:15:13;20.00;99.90
22491;DHT22;11412;50.802;4.350;2022-07-29T00:17:38;19.90;99.90
22491;DHT22;11412;50.802;4.350;2022-07-29T00:20:04;20.10;99.90
22491;DHT22;11412;50.802;4.350;2022-07-29T00:22:30;19.90;99.90
22491;DHT22;11412;50.802;4.350;2022-07-29T00:24:56;20.00;99.90
22491;DHT22;11412;50.802;4.350;2022-07-29T00:27:22;19.90;99.90
22491;DHT22;11412;50.802;4.350;2022-07-29T00:29:48;19.90;99.90
22491;DHT22;11412;50.802;4.350;2022-07-29T00:32:14;19.90;99.90
22491;DHT22;11412;50.802;4.350;2022-07-29T00:34:39;19.80;99.90
22491;DHT22;11412;50.802;4.350;2022-07-29T00:37:24;19.70;99.90
22491;DHT22;11412;50.802;4.350;2022-07-29T00:39:50;19.60;99.90
22491;DHT22;11412;50.802;4.350;2022-07-29T00:42:16;19.70;99.90
22491;DHT22;11412;50.802;4.350;2022-07-29T00:44:42;19.60;99.90
22491;DHT22;11412;50.802;4.350;2022-07-29T00:47:10;19.50;99.90
22491;DHT22;11412;50.802;4.350;2022-07-29T00:49:36;19.40;99.90
22491;DHT22;11412;50.802;4.350;2022-07-29T00:52:05;19.40;99.90
22491;DHT22;11412;50.802;4.350;2022-07-29T00:54:32;19.30;99.90
22491;DHT22;11412;50.802;4.350;2022-07-29T00:56:59;19.30;99.90
22491;DHT22;11412;50.802;4.350;2022-07-29T00:59:26;19.40;99.90
22491;DHT22;11412;50.802;4.350;2022-07-29T01:01:53;19.50;99.90
22491;DHT22;11412;50.802;4.350;2022-07-29T01:04:20;19.50;99.90
22491;DHT22;11412;50.802;4.350;2022-07-29T01:06:47;19.60;99.90
22491;DHT22;11412;50.802;4.350;2022-07-29T01:09:14;19.40;99.90
22491;DHT22;11412;50.802;4.350;2022-07-29T01:11:43;19.10;99.90
22491;DHT22;11412;50.802;4.350;2022-07-29T01:14:09;19.20;99.90
22491;DHT22;11412;50.802;4.350;2022-07-29T01:16:45;19.30;99.90
22491;DHT22;11412;50.802;4.350;2022-07-29T01:25:11;18.80;99.90
22491;DHT22;11412;50.802;4.350;2022-07-29T01:27:47;18.90;99.90
22491;DHT22;11412;50.802;4.350;2022-07-29T01:30:16;18.80;99.90
22491;DHT22;11412;50.802;4.350;2022-07-29T01:32:43;18.70;99.90
22491;DHT22;11412;50.802;4.350;2022-07-29T01:35:35;18.70;99.90
22491;DHT22;11412;50.802;4.350;2022-07-29T01:41:08;18.70;99.90
22491;DHT22;11412;50.802;4.350;2022-07-29T01:43:51;18.60;99.90
22491;DHT22;11412;50.802;4.350;2022-07-29T01:46:29;18.40;99.90
22491;DHT22;11412;50.802;4.350;2022-07-29T01:49:24;18.60;99.90
22491;DHT22;11412;50.802;4.350;2022-07-29T01:51:54;18.50;99.90
22491;DHT22;11412;50.802;4.350;2022-07-29T01:54:26;18.50;99.90
22491;DHT22;11412;50.802;4.350;2022-07-29T01:56:56;18.40;99.90
22491;DHT22;11412;50.802;4.350;2022-07-29T01:59:23;18.40;99.90
22491;DHT22;11412;50.802;4.350;2022-07-29T02:01:53;18.30;99.90
22491;DHT22;11412;50.802;4.350;2022-07-29T02:04:20;18.30;99.90
22491;DHT22;11412;50.802;4.350;2022-07-29T02:06:48;18.20;99.90
22491;DHT22;11412;50.802;4.350;2022-07-29T02:09:14;18.10;99.90
22491;DHT22;11412;50.802;4.350;2022-07-29T02:11:47;18.10;99.90
22491;DHT22;11412;50.802;4.350;2022-07-29T02:14:15;18.00;99.90
22491;DHT22;11412;50.802;4.350;2022-07-29T02:16:42;17.80;99.90
22491;DHT22;11412;50.802;4.350;2022-07-29T02:19:10;17.90;99.90
22491;DHT22;11412;50.802;4.350;2022-07-29T02:21:37;17.90;99.90
22491;DHT22;11412;50.802;4.350;2022-07-29T02:24:04;17.90;99.90
22491;DHT22;11412;50.802;4.350;2022-07-29T02:26:32;17.90;99.90
22491;DHT22;11412;50.802;4.350;2022-07-29T02:28:59;17.80;99.90
22491;DHT22;11412;50.802;4.350;2022-07-29T02:31:30;17.70;99.90
22491;DHT22;11412;50.802;4.350;2022-07-29T02:33:58;17.50;99.90
22491;DHT22;11412;50.802;4.350;2022-07-29T02:36:26;17.60;99.90
22491;DHT22;11412;50.802;4.350;2022-07-29T02:38:53;17.50;99.90
22491;DHT22;11412;50.802;4.350;2022-07-29T02:41:44;17.50;99.90
22491;DHT22;11412;50.802;4.350;2022-07-29T02:44:16;17.50;99.90
22491;DHT22;11412;50.802;4.350;2022-07-29T02:46:57;17.50;99.90
22491;DHT22;11412;50.802;4.350;2022-07-29T02:49:48;17.50;99.90
22491;DHT22;11412;50.802;4.350;2022-07-29T03:00:41;17.50;99.90
22491;DHT22;11412;50.802;4.350;2022-07-29T03:03:12;17.50;99.90
22491;DHT22;11412;50.802;4.350;2022-07-29T03:05:39;17.40;99.90
22491;DHT22;11412;50.802;4.350;2022-07-29T03:08:06;17.40;99.90
22491;DHT22;11412;50.802;4.350;2022-07-29T03:10:34;17.40;99.90
22491;DHT22;11412;50.802;4.350;2022-07-29T03:13:00;17.40;99.90
22491;DHT22;11412;50.802;4.350;2022-07-29T03:15:27;17.50;99.90
22491;DHT22;11412;50.802;4.350;2022-07-29T03:17:53;17.40;99.90
22491;DHT22;11412;50.802;4.350;2022-07-29T03:20:21;17.40;99.90
22491;DHT22;11412;50.802;4.350;2022-07-29T03:22:47;17.40;99.90
22491;DHT22;11412;50.802;4.350;2022-07-29T03:25:14;17.60;99.90
22491;DHT22;11412;50.802;4.350;2022-07-29T03:27:40;17.50;99.90
22491;DHT22;11412;50.802;4.350;2022-07-29T03:30:07;17.40;99.90
22491;DHT22;11412;50.802;4.350;2022-07-29T03:32:33;17.30;99.90
22491;DHT22;11412;50.802;4.350;2022-07-29T03:34:59;17.10;99.90
22491;DHT22;11412;50.802;4.350;2022-07-29T03:37:25;17.10;99.90
22491;DHT22;11412;50.802;4.350;2022-07-29T03:39:52;17.00;99.90
22491;DHT22;11412;50.802;4.350;2022-07-29T03:42:20;17.00;99.90
22491;DHT22;11412;50.802;4.350;2022-07-29T03:44:50;16.90;99.90
22491;DHT22;11412;50.802;4.350;2022-07-29T03:47:20;16.80;99.90
22491;DHT22;11412;50.802;4.350;2022-07-29T03:49:50;16.80;99.90
22491;DHT22;11412;50.802;4.350;2022-07-29T03:52:18;16.80;99.90
22491;DHT22;11412;50.802;4.350;2022-07-29T03:54:44;16.80;99.90
22491;DHT22;11412;50.802;4.350;2022-07-29T03:57:11;16.70;99.90
22491;DHT22;11412;50.802;4.350;2022-07-29T03:59:37;16.90;99.90
22491;DHT22;11412;50.802;4.350;2022-07-29T04:02:05;16.80;99.90
22491;DHT22;11412;50.802;4.350;2022-07-29T04:04:35;16.80;99.90
22491;DHT22;11412;50.802;4.350;2022-07-29T04:07:01;16.60;99.90
22491;DHT22;11412;50.802;4.350;2022-07-29T04:09:27;16.80;99.90
22491;DHT22;11412;50.802;4.350;2022-07-29T04:11:53;16.70;99.90
22491;DHT22;11412;50.802;4.350;2022-07-29T04:14:18;16.50;99.90
22491;DHT22;11412;50.802;4.350;2022-07-29T04:16:44;16.40;99.90
22491;DHT22;11412;50.802;4.350;2022-07-29T04:19:10;16.50;99.90
22491;DHT22;11412;50.802;4.350;2022-07-29T04:21:39;16.50;99.90
22491;DHT22;11412;50.802;4.350;2022-07-29T04:24:05;16.40;99.90
22491;DHT22;11412;50.802;4.350;2022-07-29T04:26:32;16.30;99.90
22491;DHT22;11412;50.802;4.350;2022-07-29T04:28:58;16.20;99.90
22491;DHT22;11412;50.802;4.350;2022-07-29T04:31:23;16.30;99.90
22491;DHT22;11412;50.802;4.350;2022-07-29T04:33:49;16.30;99.90
22491;DHT22;11412;50.802;4.350;2022-07-29T04:36:15;16.20;99.90
22491;DHT22;11412;50.802;4.350;2022-07-29T04:38:40;16.20;99.90
22491;DHT22;11412;50.802;4.350;2022-07-29T04:41:06;16.20;99.90
22491;DHT22;11412;50.802;4.350;2022-07-29T04:43:33;16.30;99.90
22491;DHT22;11412;50.802;4.350;2022-07-29T04:45:59;16.40;99.90
22491;DHT22;11412;50.802;4.350;2022-07-29T04:48:25;16.50;99.90
22491;DHT22;11412;50.802;4.350;2022-07-29T04:50:51;16.50;99.90
22491;DHT22;11412;50.802;4.350;2022-07-29T04:53:17;16.50;99.90
22491;DHT22;11412;50.802;4.350;2022-07-29T04:55:43;16.40;99.90
22491;DHT22;11412;50.802;4.350;2022-07-29T04:58:08;16.50;99.90
22491;DHT22;11412;50.802;4.350;2022-07-29T05:00:34;16.40;99.90
22491;DHT22;11412;50.802;4.350;2022-07-29T05:03:00;16.30;99.90
22491;DHT22;11412;50.802;4.350;2022-07-29T05:05:26;16.40;99.90
22491;DHT22;11412;50.802;4.350;2022-07-29T05:07:51;16.50;99.90
22491;DHT22;11412;50.802;4.350;2022-07-29T05:10:17;16.70;99.90
22491;DHT22;11412;50.802;4.350;2022-07-29T05:12:42;16.70;99.90
22491;DHT22;11412;50.802;4.350;2022-07-29T05:15:09;16.70;99.90
22491;DHT22;11412;50.802;4.350;2022-07-29T05:17:35;16.70;99.90
22491;DHT22;11412;50.802;4.350;2022-07-29T05:20:00;16.80;99.90
22491;DHT22;11412;50.802;4.350;2022-07-29T05:22:26;16.60;99.90
22491;DHT22;11412;50.802;4.350;2022-07-29T05:24:52;16.60;99.90
22491;DHT22;11412;50.802;4.350;2022-07-29T05:27:17;16.60;99.90
22491;DHT22;11412;50.802;4.350;2022-07-29T05:29:43;16.60;99.90
22491;DHT22;11412;50.802;4.350;2022-07-29T05:32:09;16.80;99.90
22491;DHT22;11412;50.802;4.350;2022-07-29T05:34:35;16.80;99.90
22491;DHT22;11412;50.802;4.350;2022-07-29T05:37:01;16.90;99.90
22491;DHT22;11412;50.802;4.350;2022-07-29T05:39:26;17.10;99.90
22491;DHT22;11412;50.802;4.350;2022-07-29T05:41:52;17.10;99.90
22491;DHT22;11412;50.802;4.350;2022-07-29T05:44:18;17.10;99.90
22491;DHT22;11412;50.802;4.350;2022-07-29T05:46:43;17.20;99.90
22491;DHT22;11412;50.802;4.350;2022-07-29T05:49:09;17.20;99.90
22491;DHT22;11412;50.802;4.350;2022-07-29T05:51:35;17.20;99.90
22491;DHT22;11412;50.802;4.350;2022-07-29T05:54:01;17.20;99.90
22491;DHT22;11412;50.802;4.350;2022-07-29T05:56:27;17.30;99.90
22491;DHT22;11412;50.802;4.350;2022-07-29T05:58:53;17.40;99.90
22491;DHT22;11412;50.802;4.350;2022-07-29T06:01:19;17.50;99.90
22491;DHT22;11412;50.802;4.350;2022-07-29T06:03:44;17.50;99.90
22491;DHT22;11412;50.802;4.350;2022-07-29T06:06:10;17.60;99.90
22491;DHT22;11412;50.802;4.350;2022-07-29T06:08:36;17.50;99.90
22491;DHT22;11412;50.802;4.350;2022-07-29T06:11:03;17.70;99.90
22491;DHT22;11412;50.802;4.350;2022-07-29T06:13:29;17.80;99.90
22491;DHT22;11412;50.802;4.350;2022-07-29T06:15:55;18.00;99.90
22491;DHT22;11412;50.802;4.350;2022-07-29T06:18:21;18.10;99.90
22491;DHT22;11412;50.802;4.350;2022-07-29T06:20:52;18.10;99.90
22491;DHT22;11412;50.802;4.350;2022-07-29T06:23:19;18.10;99.90
22491;DHT22;11412;50.802;4.350;2022-07-29T06:25:45;18.20;99.90
22491;DHT22;11412;50.802;4.350;2022-07-29T06:28:11;18.50;99.90
22491;DHT22;11412;50.802;4.350;2022-07-29T06:30:37;18.50;99.90
22491;DHT22;11412;50.802;4.350;2022-07-29T06:33:03;18.70;99.90
22491;DHT22;11412;50.802;4.350;2022-07-29T06:35:29;18.90;99.90
22491;DHT22;11412;50.802;4.350;2022-07-29T06:37:55;19.00;99.90
22491;DHT22;11412;50.802;4.350;2022-07-29T06:40:20;19.20;99.90
22491;DHT22;11412;50.802;4.350;2022-07-29T06:43:05;19.20;99.90
22491;DHT22;11412;50.802;4.350;2022-07-29T06:45:33;19.20;99.90
22491;DHT22;11412;50.802;4.350;2022-07-29T06:47:59;19.50;99.90
22491;DHT22;11412;50.802;4.350;2022-07-29T06:50:25;19.60;99.90
22491;DHT22;11412;50.802;4.350;2022-07-29T06:52:51;19.70;99.90
22491;DHT22;11412;50.802;4.350;2022-07-29T06:55:17;20.00;99.90
22491;DHT22;11412;50.802;4.350;2022-07-29T06:57:45;20.30;99.90
22491;DHT22;11412;50.802;4.350;2022-07-29T07:00:11;20.50;99.90
22491;DHT22;11412;50.802;4.350;2022-07-29T07:02:37;20.70;99.90
22491;DHT22;11412;50.802;4.350;2022-07-29T07:05:03;20.80;99.90
22491;DHT22;11412;50.802;4.350;2022-07-29T07:07:28;20.70;99.90
22491;DHT22;11412;50.802;4.350;2022-07-29T07:09:54;20.60;99.90
22491;DHT22;11412;50.802;4.350;2022-07-29T07:12:20;20.60;99.90
22491;DHT22;11412;50.802;4.350;2022-07-29T07:14:45;20.40;99.90
22491;DHT22;11412;50.802;4.350;2022-07-29T07:17:11;20.30;99.90
22491;DHT22;11412;50.802;4.350;2022-07-29T07:19:36;20.30;99.90
22491;DHT22;11412;50.802;4.350;2022-07-29T07:22:02;20.30;99.90
22491;DHT22;11412;50.802;4.350;2022-07-29T07:24:28;20.30;99.90
22491;DHT22;11412;50.802;4.350;2022-07-29T07:26:54;20.30;99.90
22491;DHT22;11412;50.802;4.350;2022-07-29T07:29:19;20.20;99.90
22491;DHT22;11412;50.802;4.350;2022-07-29T07:31:45;20.20;99.90
22491;DHT22;11412;50.802;4.350;2022-07-29T07:34:10;20.20;99.90
22491;DHT22;11412;50.802;4.350;2022-07-29T07:36:36;20.30;99.90
22491;DHT22;11412;50.802;4.350;2022-07-29T07:39:02;20.70;99.90
22491;DHT22;11412;50.802;4.350;2022-07-29T07:41:28;20.70;99.90
22491;DHT22;11412;50.802;4.350;2022-07-29T07:43:54;20.90;99.90
22491;DHT22;11412;50.802;4.350;2022-07-29T07:46:20;21.00;99.90
22491;DHT22;11412;50.802;4.350;2022-07-29T07:48:45;21.10;99.90
22491;DHT22;11412;50.802;4.350;2022-07-29T07:51:11;21.30;99.90
22491;DHT22;11412;50.802;4.350;2022-07-29T07:53:37;21.70;99.90
22491;DHT22;11412;50.802;4.350;2022-07-29T07:56:03;21.80;99.90
22491;DHT22;11412;50.802;4.350;2022-07-29T07:58:29;21.80;99.90
22491;DHT22;11412;50.802;4.350;2022-07-29T08:00:55;21.60;99.90
22491;DHT22;11412;50.802;4.350;2022-07-29T08:03:21;21.60;99.90
22491;DHT22;11412;50.802;4.350;2022-07-29T08:05:46;21.70;99.90
22491;DHT22;11412;50.802;4.350;2022-07-29T08:08:13;22.20;99.90
22491;DHT22;11412;50.802;4.350;2022-07-29T08:10:39;22.40;99.90
22491;DHT22;11412;50.802;4.350;2022-07-29T08:13:23;22.40;99.90
22491;DHT22;11412;50.802;4.350;2022-07-29T08:15:49;22.30;99.90
22491;DHT22;11412;50.802;4.350;2022-07-29T08:18:30;22.30;99.90
22491;DHT22;11412;50.802;4.350;2022-07-29T08:20:57;22.60;99.90
22491;DHT22;11412;50.802;4.350;2022-07-29T08:23:23;22.80;99.90
22491;DHT22;11412;50.802;4.350;2022-07-29T08:25:49;22.80;99.90
22491;DHT22;11412;50.802;4.350;2022-07-29T08:28:16;22.80;99.90
22491;DHT22;11412;50.802;4.350;2022-07-29T08:30:41;22.80;99.90
22491;DHT22;11412;50.802;4.350;2022-07-29T08:33:07;23.10;99.90
22491;DHT22;11412;50.802;4.350;2022-07-29T08:35:33;23.10;99.90
22491;DHT22;11412;50.802;4.350;2022-07-29T08:37:58;23.30;99.90
22491;DHT22;11412;50.802;4.350;2022-07-29T08:40:24;23.30;99.90
22491;DHT22;11412;50.802;4.350;2022-07-29T08:42:50;23.50;99.90
22491;DHT22;11412;50.802;4.350;2022-07-29T08:45:16;23.40;99.90
22491;DHT22;11412;50.802;4.350;2022-07-29T08:47:44;23.50;99.90
22491;DHT22;11412;50.802;4.350;2022-07-29T08:50:10;23.90;99.90
22491;DHT22;11412;50.802;4.350;2022-07-29T08:52:38;24.10;99.90
22491;DHT22;11412;50.802;4.350;2022-07-29T08:55:05;24.10;99.90
22491;DHT22;11412;50.802;4.350;2022-07-29T08:57:33;24.30;99.90
22491;DHT22;11412;50.802;4.350;2022-07-29T09:00:00;24.60;99.90
22491;DHT22;11412;50.802;4.350;2022-07-29T09:02:29;24.60;99.90
22491;DHT22;11412;50.802;4.350;2022-07-29T09:04:59;24.90;99.90
22491;DHT22;11412;50.802;4.350;2022-07-29T09:07:25;25.00;99.90
22491;DHT22;11412;50.802;4.350;2022-07-29T09:09:51;25.50;99.90
22491;DHT22;11412;50.802;4.350;2022-07-29T09:12:17;25.60;99.90
22491;DHT22;11412;50.802;4.350;2022-07-29T09:14:42;25.50;99.90
22491;DHT22;11412;50.802;4.350;2022-07-29T09:17:08;25.40;99.90
22491;DHT22;11412;50.802;4.350;2022-07-29T09:19:35;25.30;99.90
22491;DHT22;11412;50.802;4.350;2022-07-29T09:22:04;25.70;99.90
22491;DHT22;11412;50.802;4.350;2022-07-29T09:24:41;25.80;99.90
22491;DHT22;11412;50.802;4.350;2022-07-29T09:27:24;26.20;99.90
22491;DHT22;11412;50.802;4.350;2022-07-29T09:30:08;26.50;99.90
22491;DHT22;11412;50.802;4.350;2022-07-29T09:32:58;26.70;99.90
22491;DHT22;11412;50.802;4.350;2022-07-29T09:35:26;26.90;99.90
22491;DHT22;11412;50.802;4.350;2022-07-29T09:37:52;26.60;99.90
22491;DHT22;11412;50.802;4.350;2022-07-29T09:40:24;26.90;99.90
22491;DHT22;11412;50.802;4.350;2022-07-29T09:42:50;27.10;99.90
22491;DHT22;11412;50.802;4.350;2022-07-29T09:45:33;27.10;99.90
22491;DHT22;11412;50.802;4.350;2022-07-29T09:48:00;27.50;99.90
22491;DHT22;11412;50.802;4.350;2022-07-29T09:50:42;27.00;99.90
22491;DHT22;11412;50.802;4.350;2022-07-29T09:53:09;27.30;99.90
22491;DHT22;11412;50.802;4.350;2022-07-29T09:55:51;27.60;99.90
22491;DHT22;11412;50.802;4.350;2022-07-29T09:58:21;27.70;99.90
22491;DHT22;11412;50.802;4.350;2022-07-29T10:00:47;27.80;99.90
22491;DHT22;11412;50.802;4.350;2022-07-29T10:03:14;28.20;99.90
22491;DHT22;11412;50.802;4.350;2022-07-29T10:05:41;28.20;99.90
22491;DHT22;11412;50.802;4.350;2022-07-29T10:08:08;28.10;99.90
22491;DHT22;11412;50.802;4.350;2022-07-29T10:10:39;28.40;99.90
22491;DHT22;11412;50.802;4.350;2022-07-29T10:13:10;28.50;99.90
22491;DHT22;11412;50.802;4.350;2022-07-29T10:15:38;28.80;99.90
22491;DHT22;11412;50.802;4.350;2022-07-29T10:18:06;28.60;99.90
22491;DHT22;11412;50.802;4.350;2022-07-29T10:20:33;28.10;99.90
22491;DHT22;11412;50.802;4.350;2022-07-29T10:22:59;27.90;99.90
22491;DHT22;11412;50.802;4.350;2022-07-29T10:25:25;27.80;99.90
22491;DHT22;11412;50.802;4.350;2022-07-29T10:27:51;27.70;99.90
22491;DHT22;11412;50.802;4.350;2022-07-29T10:30:18;27.70;99.90
22491;DHT22;11412;50.802;4.350;2022-07-29T10:44:03;27.40;99.90
22491;DHT22;11412;50.802;4.350;2022-07-29T10:46:35;27.30;99.90
22491;DHT22;11412;50.802;4.350;2022-07-29T10:49:20;27.30;99.90
22491;DHT22;11412;50.802;4.350;2022-07-29T10:51:57;27.00;99.90
22491;DHT22;11412;50.802;4.350;2022-07-29T10:59:37;28.60;99.90
22491;DHT22;11412;50.802;4.350;2022-07-29T11:02:02;28.70;99.90
22491;DHT22;11412;50.802;4.350;2022-07-29T11:07:17;28.80;99.90
22491;DHT22;11412;50.802;4.350;2022-07-29T11:09:42;29.20;99.90
22491;DHT22;11412;50.802;4.350;2022-07-29T11:12:50;28.90;99.90
22491;DHT22;11412;50.802;4.350;2022-07-29T11:15:21;28.70;99.90
22491;DHT22;11412;50.802;4.350;2022-07-29T11:20:43;28.90;99.90
22491;DHT22;11412;50.802;4.350;2022-07-29T11:26:17;28.40;99.90
22491;DHT22;11412;50.802;4.350;2022-07-29T11:34:30;29.10;99.90
22491;DHT22;11412;50.802;4.350;2022-07-29T11:39:33;29.10;99.20
22491;DHT22;11412;50.802;4.350;2022-07-29T11:45:03;30.10;99.50
22491;DHT22;11412;50.802;4.350;2022-07-29T11:47:35;30.20;99.70
22491;DHT22;11412;50.802;4.350;2022-07-29T11:50:04;30.20;99.00
22491;DHT22;11412;50.802;4.350;2022-07-29T11:55:09;30.40;99.40
22491;DHT22;11412;50.802;4.350;2022-07-29T11:57:36;30.10;98.00
22491;DHT22;11412;50.802;4.350;2022-07-29T12:00:04;30.60;97.70
22491;DHT22;11412;50.802;4.350;2022-07-29T12:02:42;30.50;98.00
22491;DHT22;11412;50.802;4.350;2022-07-29T12:05:09;30.00;97.50
22491;DHT22;11412;50.802;4.350;2022-07-29T12:07:37;29.70;98.50
22491;DHT22;11412;50.802;4.350;2022-07-29T12:10:04;28.70;99.80
22491;DHT22;11412;50.802;4.350;2022-07-29T12:12:30;28.20;99.90
22491;DHT22;11412;50.802;4.350;2022-07-29T12:14:56;28.20;99.90
22491;DHT22;11412;50.802;4.350;2022-07-29T12:19:53;28.20;99.90
22491;DHT22;11412;50.802;4.350;2022-07-29T12:22:31;28.80;99.40
22491;DHT22;11412;50.802;4.350;2022-07-29T12:25:05;29.40;99.90
22491;DHT22;11412;50.802;4.350;2022-07-29T12:27:31;29.90;98.80
22491;DHT22;11412;50.802;4.350;2022-07-29T12:30:03;29.90;98.40
22491;DHT22;11412;50.802;4.350;2022-07-29T12:32:37;30.00;98.40
22491;DHT22;11412;50.802;4.350;2022-07-29T12:35:08;29.90;98.30
22491;DHT22;11412;50.802;4.350;2022-07-29T12:37:35;29.30;98.90
22491;DHT22;11412;50.802;4.350;2022-07-29T12:40:06;29.20;99.50
22491;DHT22;11412;50.802;4.350;2022-07-29T12:42:32;28.60;98.80
22491;DHT22;11412;50.802;4.350;2022-07-29T12:44:58;28.30;98.00
22491;DHT22;11412;50.802;4.350;2022-07-29T12:47:24;28.00;99.80
22491;DHT22;11412;50.802;4.350;2022-07-29T12:49:51;28.60;99.90
22491;DHT22;11412;50.802;4.350;2022-07-29T12:52:34;29.10;99.20
22491;DHT22;11412;50.802;4.350;2022-07-29T12:55:00;29.00;99.80
22491;DHT22;11412;50.802;4.350;2022-07-29T12:57:27;29.00;99.90
22491;DHT22;11412;50.802;4.350;2022-07-29T13:00:10;29.30;99.90
22491;DHT22;11412;50.802;4.350;2022-07-29T13:02:38;28.90;97.90
22491;DHT22;11412;50.802;4.350;2022-07-29T13:05:05;29.00;99.90
22491;DHT22;11412;50.802;4.350;2022-07-29T13:07:33;29.30;99.90
22491;DHT22;11412;50.802;4.350;2022-07-29T13:10:15;29.00;98.10
22491;DHT22;11412;50.802;4.350;2022-07-29T13:13:01;28.80;99.90
22491;DHT22;11412;50.802;4.350;2022-07-29T13:15:27;28.50;99.70
22491;DHT22;11412;50.802;4.350;2022-07-29T13:17:52;27.70;99.40
22491;DHT22;11412;50.802;4.350;2022-07-29T13:20:18;27.60;99.10
22491;DHT22;11412;50.802;4.350;2022-07-29T13:22:48;27.50;99.50
22491;DHT22;11412;50.802;4.350;2022-07-29T13:25:13;27.20;99.90
22491;DHT22;11412;50.802;4.350;2022-07-29T13:27:39;27.30;99.90
22491;DHT22;11412;50.802;4.350;2022-07-29T13:30:07;27.60;99.90
22491;DHT22;11412;50.802;4.350;2022-07-29T13:32:33;28.00;99.90
22491;DHT22;11412;50.802;4.350;2022-07-29T13:35:02;28.70;99.90
22491;DHT22;11412;50.802;4.350;2022-07-29T13:37:28;29.20;99.70
22491;DHT22;11412;50.802;4.350;2022-07-29T13:39:55;29.50;99.90
22491;DHT22;11412;50.802;4.350;2022-07-29T13:42:22;29.80;99.90
22491;DHT22;11412;50.802;4.350;2022-07-29T13:44:48;29.80;98.60
22491;DHT22;11412;50.802;4.350;2022-07-29T13:47:21;29.90;99.50
22491;DHT22;11412;50.802;4.350;2022-07-29T13:49:48;30.10;99.30
22491;DHT22;11412;50.802;4.350;2022-07-29T13:52:14;30.40;98.30
22491;DHT22;11412;50.802;4.350;2022-07-29T13:54:39;30.40;98.10
22491;DHT22;11412;50.802;4.350;2022-07-29T13:57:05;30.40;98.50
22491;DHT22;11412;50.802;4.350;2022-07-29T13:59:31;30.20;97.40
22491;DHT22;11412;50.802;4.350;2022-07-29T14:01:57;30.00;97.20
22491;DHT22;11412;50.802;4.350;2022-07-29T14:04:22;29.90;97.60
22491;DHT22;11412;50.802;4.350;2022-07-29T14:06:49;29.80;97.90
22491;DHT22;11412;50.802;4.350;2022-07-29T14:09:15;29.60;97.30
22491;DHT22;11412;50.802;4.350;2022-07-29T14:11:41;29.70;97.50
22491;DHT22;11412;50.802;4.350;2022-07-29T14:14:07;30.00;97.70
22491;DHT22;11412;50.802;4.350;2022-07-29T14:16:33;30.10;97.10
22491;DHT22;11412;50.802;4.350;2022-07-29T14:18:59;30.10;96.80
22491;DHT22;11412;50.802;4.350;2022-07-29T14:21:24;30.10;95.10
22491;DHT22;11412;50.802;4.350;2022-07-29T14:23:50;30.20;96.50
22491;DHT22;11412;50.802;4.350;2022-07-29T14:26:20;30.30;95.40
22491;DHT22;11412;50.802;4.350;2022-07-29T14:28:47;30.10;95.20
22491;DHT22;11412;50.802;4.350;2022-07-29T14:31:12;29.80;95.40
22491;DHT22;11412;50.802;4.350;2022-07-29T14:33:38;29.90;95.70
22491;DHT22;11412;50.802;4.350;2022-07-29T14:36:04;29.20;95.20
22491;DHT22;11412;50.802;4.350;2022-07-29T14:38:29;29.00;96.30
22491;DHT22;11412;50.802;4.350;2022-07-29T14:40:55;28.60;96.70
22491;DHT22;11412;50.802;4.350;2022-07-29T14:43:21;28.30;97.90
22491;DHT22;11412;50.802;4.350;2022-07-29T14:45:47;28.20;97.40
22491;DHT22;11412;50.802;4.350;2022-07-29T14:48:13;28.30;99.10
22491;DHT22;11412;50.802;4.350;2022-07-29T14:50:38;28.80;98.80
22491;DHT22;11412;50.802;4.350;2022-07-29T14:53:04;29.20;97.80
22491;DHT22;11412;50.802;4.350;2022-07-29T14:55:30;29.40;97.30
22491;DHT22;11412;50.802;4.350;2022-07-29T14:57:56;29.50;97.50
22491;DHT22;11412;50.802;4.350;2022-07-29T15:00:22;29.60;96.90
22491;DHT22;11412;50.802;4.350;2022-07-29T15:02:48;30.00;95.50
22491;DHT22;11412;50.802;4.350;2022-07-29T15:05:14;29.80;95.00
22491;DHT22;11412;50.802;4.350;2022-07-29T15:07:40;29.60;95.50
22491;DHT22;11412;50.802;4.350;2022-07-29T15:10:06;29.50;95.80
22491;DHT22;11412;50.802;4.350;2022-07-29T15:12:32;29.60;95.20
22491;DHT22;11412;50.802;4.350;2022-07-29T15:14:58;29.50;96.10
22491;DHT22;11412;50.802;4.350;2022-07-29T15:17:24;29.50;95.60
22491;DHT22;11412;50.802;4.350;2022-07-29T15:19:50;29.50;96.20
22491;DHT22;11412;50.802;4.350;2022-07-29T15:22:16;29.50;95.70
22491;DHT22;11412;50.802;4.350;2022-07-29T15:24:42;29.40;95.40
22491;DHT22;11412;50.802;4.350;2022-07-29T15:27:08;29.40;95.40
22491;DHT22;11412;50.802;4.350;2022-07-29T15:29:40;29.30;95.30
22491;DHT22;11412;50.802;4.350;2022-07-29T15:32:07;29.10;95.50
22491;DHT22;11412;50.802;4.350;2022-07-29T15:34:33;28.90;95.90
22491;DHT22;11412;50.802;4.350;2022-07-29T15:36:59;28.80;97.00
22491;DHT22;11412;50.802;4.350;2022-07-29T15:39:25;28.60;96.90
22491;DHT22;11412;50.802;4.350;2022-07-29T15:41:51;28.20;97.10
22491;DHT22;11412;50.802;4.350;2022-07-29T15:44:17;28.10;98.00
22491;DHT22;11412;50.802;4.350;2022-07-29T15:46:43;28.00;98.20
22491;DHT22;11412;50.802;4.350;2022-07-29T15:49:31;27.70;97.80
22491;DHT22;11412;50.802;4.350;2022-07-29T15:52:00;27.80;97.00
22491;DHT22;11412;50.802;4.350;2022-07-29T15:54:26;27.80;98.10
22491;DHT22;11412;50.802;4.350;2022-07-29T15:56:52;28.00;98.60
22491;DHT22;11412;50.802;4.350;2022-07-29T15:59:19;28.10;98.60
22491;DHT22;11412;50.802;4.350;2022-07-29T16:01:44;28.10;98.20
22491;DHT22;11412;50.802;4.350;2022-07-29T16:04:10;28.20;97.60
22491;DHT22;11412;50.802;4.350;2022-07-29T16:06:36;28.10;97.70
22491;DHT22;11412;50.802;4.350;2022-07-29T16:09:02;28.10;97.30
22491;DHT22;11412;50.802;4.350;2022-07-29T16:11:28;27.90;97.20
22491;DHT22;11412;50.802;4.350;2022-07-29T16:13:54;27.80;97.90
22491;DHT22;11412;50.802;4.350;2022-07-29T16:16:19;27.80;97.70
22491;DHT22;11412;50.802;4.350;2022-07-29T16:18:45;27.70;98.50
22491;DHT22;11412;50.802;4.350;2022-07-29T16:21:11;27.80;97.40
22491;DHT22;11412;50.802;4.350;2022-07-29T16:23:38;27.80;98.10
22491;DHT22;11412;50.802;4.350;2022-07-29T16:26:04;27.80;97.70
22491;DHT22;11412;50.802;4.350;2022-07-29T16:28:30;27.50;97.80
22491;DHT22;11412;50.802;4.350;2022-07-29T16:30:56;27.50;98.50
22491;DHT22;11412;50.802;4.350;2022-07-29T16:33:22;27.50;98.70